Time;durP1;ratioP1;P1;durP2;ratioP2;P2;SDS_P1;SDS_P2;PMS_P1;PMS_P2;Temp;Humidity;BMP_temperature;BMP_pressure;BME280_temperature;BME280_humidity;BME280_pressure;Samples;Min_cycle;Max_cycle;Signal;HPM_P1;HPM_P2
2023/05/16 00:01:38;;;;;;;;;;;11.20;75.30;;;;;;5089729;28;19927;-71
2023/05/16 00:04:04;;;;;;;;;;;11.10;75.20;;;;;;5089822;28;19912;-71
2023/05/16 00:06:30;;;;;;;;;;;11.10;75.10;;;;;;5088698;28;19916;-71
2023/05/16 00:08:56;;;;;;;;;;;11.00;75.00;;;;;;5089759;28;19912;-71
2023/05/16 00:11:22;;;;;;;;;;;11.00;75.00;;;;;;5089582;28;19918;-71
2023/05/16 00:13:47;;;;;;;;;;;10.90;74.90;;;;;;5089647;28;20012;-71
2023/05/16 00:16:13;;;;;;;;;;;10.80;74.90;;;;;;5088275;28;19954;-71
2023/05/16 00:18:39;;;;;;;;;;;10.70;74.90;;;;;;5089621;28;19913;-71
2023/05/16 00:21:05;;;;;;;;;;;10.70;75.00;;;;;;5089657;28;19916;-71
2023/05/16 00:23:31;;;;;;;;;;;10.60;74.90;;;;;;5089358;28;19920;-71
2023/05/16 00:25:56;;;;;;;;;;;10.60;74.90;;;;;;5089751;28;20023;-71
2023/05/16 00:28:22;;;;;;;;;;;10.50;74.90;;;;;;5089462;28;19918;-71
2023/05/16 00:30:47;;;;;;;;;;;10.50;74.90;;;;;;5089278;28;20449;-71
2023/05/16 00:33:13;;;;;;;;;;;10.50;75.00;;;;;;5087948;28;19920;-71
2023/05/16 00:35:38;;;;;;;;;;;10.40;75.10;;;;;;5089452;28;19915;-72
2023/05/16 00:38:04;;;;;;;;;;;10.50;75.20;;;;;;5089385;28;19912;-71
2023/05/16 00:40:30;;;;;;;;;;;10.50;75.10;;;;;;5089411;28;20118;-71
2023/05/16 00:42:55;;;;;;;;;;;10.50;75.10;;;;;;5089202;28;19957;-71
2023/05/16 00:45:21;;;;;;;;;;;10.50;75.10;;;;;;5089128;28;19951;-71
2023/05/16 00:47:46;;;;;;;;;;;10.50;75.00;;;;;;5089213;28;19916;-71
2023/05/16 00:50:12;;;;;;;;;;;10.50;75.10;;;;;;5089074;28;19923;-71
2023/05/16 00:52:38;;;;;;;;;;;10.40;75.10;;;;;;5088950;28;19908;-71
2023/05/16 00:55:04;;;;;;;;;;;10.50;75.20;;;;;;5088926;28;20379;-71
2023/05/16 00:57:30;;;;;;;;;;;10.50;75.20;;;;;;5087626;28;20251;-71
2023/05/16 00:59:55;;;;;;;;;;;10.50;75.20;;;;;;5087764;28;19912;-71
2023/05/16 01:02:21;;;;;;;;;;;10.50;75.60;;;;;;5088725;28;19959;-71
2023/05/16 01:04:47;;;;;;;;;;;10.50;75.00;;;;;;5088736;28;19916;-71
2023/05/16 01:07:13;;;;;;;;;;;10.40;74.90;;;;;;5087388;28;19912;-71
2023/05/16 01:09:39;;;;;;;;;;;10.40;74.80;;;;;;5088820;28;19908;-71
2023/05/16 01:12:19;;;;;;;;;;;10.20;74.70;;;;;;5087402;28;19922;-71
2023/05/16 01:15:03;;;;;;;;;;;10.20;74.70;;;;;;5088646;28;19919;-71
2023/05/16 01:17:41;;;;;;;;;;;10.10;74.70;;;;;;5088261;28;20397;-71
2023/05/16 01:20:15;;;;;;;;;;;10.00;74.70;;;;;;5088529;28;19999;-71
2023/05/16 01:22:44;;;;;;;;;;;9.90;74.80;;;;;;5088328;28;19915;-71
2023/05/16 01:25:21;;;;;;;;;;;9.90;74.90;;;;;;5088443;28;19957;-71
2023/05/16 01:27:47;;;;;;;;;;;9.90;74.90;;;;;;5088418;28;19916;-71
2023/05/16 01:30:16;;;;;;;;;;;9.90;75.00;;;;;;5088422;28;19908;-71
2023/05/16 01:32:42;;;;;;;;;;;9.90;75.00;;;;;;5087508;28;19912;-71
2023/05/16 01:35:09;;;;;;;;;;;9.90;74.90;;;;;;5088361;28;19916;-71
2023/05/16 01:37:38;;;;;;;;;;;9.90;74.90;;;;;;5088406;28;19909;-71
2023/05/16 01:40:11;;;;;;;;;;;9.80;74.80;;;;;;5088252;28;19908;-71
2023/05/16 01:42:39;;;;;;;;;;;9.80;74.80;;;;;;5088219;28;19908;-71
2023/05/16 01:45:12;;;;;;;;;;;9.80;74.90;;;;;;5088276;28;19914;-71
2023/05/16 01:47:40;;;;;;;;;;;9.80;74.80;;;;;;5088139;28;20408;-71
2023/05/16 01:50:11;;;;;;;;;;;9.70;74.70;;;;;;5088117;28;20019;-70
2023/05/16 01:52:39;;;;;;;;;;;9.70;74.80;;;;;;5087958;28;19923;-71
2023/05/16 01:55:09;;;;;;;;;;;9.70;74.70;;;;;;5088021;28;19912;-71
2023/05/16 01:57:35;;;;;;;;;;;9.60;74.60;;;;;;5088062;28;20423;-71
2023/05/16 02:00:00;;;;;;;;;;;9.60;74.70;;;;;;5088002;28;19912;-71
2023/05/16 02:02:26;;;;;;;;;;;9.60;74.70;;;;;;5087869;28;19959;-71
2023/05/16 02:04:51;;;;;;;;;;;9.50;74.70;;;;;;5088014;28;19964;-71
2023/05/16 02:07:17;;;;;;;;;;;9.40;74.80;;;;;;5086713;28;19920;-72
2023/05/16 02:09:43;;;;;;;;;;;9.40;74.90;;;;;;5087907;28;19950;-70
2023/05/16 02:12:08;;;;;;;;;;;9.40;74.90;;;;;;5087868;28;20131;-71
2023/05/16 02:14:34;;;;;;;;;;;9.40;74.80;;;;;;5086467;28;19911;-71
2023/05/16 02:16:59;;;;;;;;;;;9.40;74.80;;;;;;5088153;28;19919;-71
2023/05/16 02:19:25;;;;;;;;;;;9.40;74.80;;;;;;5086624;28;19999;-71
2023/05/16 02:21:50;;;;;;;;;;;9.40;74.80;;;;;;5087828;28;20106;-71
2023/05/16 02:24:16;;;;;;;;;;;9.40;74.80;;;;;;5087662;28;19970;-71
2023/05/16 02:26:41;;;;;;;;;;;9.40;74.90;;;;;;5087803;28;19928;-70
2023/05/16 02:29:08;;;;;;;;;;;9.40;74.90;;;;;;5088298;28;20383;-71
2023/05/16 02:31:33;;;;;;;;;;;9.40;74.70;;;;;;5091627;28;19916;-71
2023/05/16 02:33:59;;;;;;;;;;;9.40;74.60;;;;;;5091647;28;20065;-71
2023/05/16 02:36:25;;;;;;;;;;;9.30;74.40;;;;;;5090497;28;20142;-71
2023/05/16 02:38:51;;;;;;;;;;;9.20;74.50;;;;;;5091721;28;19955;-71
2023/05/16 02:41:16;;;;;;;;;;;9.20;74.60;;;;;;5091473;28;20431;-71
2023/05/16 02:43:43;;;;;;;;;;;9.20;74.60;;;;;;5091486;28;20265;-70
2023/05/16 02:46:25;;;;;;;;;;;9.10;74.60;;;;;;5090342;28;19912;-71
2023/05/16 02:48:50;;;;;;;;;;;9.10;74.60;;;;;;5091382;28;19912;-71
2023/05/16 02:51:16;;;;;;;;;;;9.10;74.70;;;;;;5091364;28;19916;-71
2023/05/16 02:53:42;;;;;;;;;;;9.10;74.70;;;;;;5091125;28;19908;-71
2023/05/16 02:56:09;;;;;;;;;;;9.10;74.70;;;;;;5091325;28;19912;-71
2023/05/16 02:58:34;;;;;;;;;;;9.10;74.60;;;;;;5091241;28;19923;-71
2023/05/16 03:01:00;;;;;;;;;;;9.10;74.60;;;;;;5091201;28;20003;-71
2023/05/16 03:03:26;;;;;;;;;;;9.00;74.50;;;;;;5090994;28;19928;-71
2023/05/16 03:05:52;;;;;;;;;;;9.00;74.50;;;;;;5090980;28;19919;-71
2023/05/16 03:08:17;;;;;;;;;;;8.90;74.40;;;;;;5072792;28;19920;-71
2023/05/16 03:10:43;;;;;;;;;;;8.90;74.40;;;;;;5090941;28;19916;-71
2023/05/16 03:13:08;;;;;;;;;;;8.80;74.40;;;;;;5090955;28;20392;-71
2023/05/16 03:15:34;;;;;;;;;;;8.80;74.50;;;;;;5090900;28;19981;-71
2023/05/16 03:17:59;;;;;;;;;;;8.70;74.50;;;;;;5090802;28;19912;-71
2023/05/16 03:20:25;;;;;;;;;;;8.70;74.60;;;;;;5090897;28;19939;-71
2023/05/16 03:22:51;;;;;;;;;;;8.70;74.60;;;;;;5090755;28;20196;-71
2023/05/16 03:25:16;;;;;;;;;;;8.70;74.60;;;;;;5090720;28;19922;-71
2023/05/16 03:27:42;;;;;;;;;;;8.70;74.70;;;;;;5090616;28;19908;-71
2023/05/16 03:30:08;;;;;;;;;;;8.70;74.60;;;;;;5090610;28;20356;-71
2023/05/16 03:32:33;;;;;;;;;;;8.70;74.60;;;;;;5090467;28;19916;-71
2023/05/16 03:34:59;;;;;;;;;;;8.70;74.60;;;;;;5090564;28;19969;-71
2023/05/16 03:37:25;;;;;;;;;;;8.70;74.50;;;;;;5090530;28;19916;-71
2023/05/16 03:39:50;;;;;;;;;;;8.70;74.50;;;;;;5090155;28;19908;-71
2023/05/16 03:42:17;;;;;;;;;;;8.70;74.50;;;;;;5090515;28;19912;-71
2023/05/16 03:44:43;;;;;;;;;;;8.60;74.50;;;;;;5090312;28;20344;-71
2023/05/16 03:47:08;;;;;;;;;;;8.60;74.50;;;;;;5090254;28;19965;-71
2023/05/16 03:49:35;;;;;;;;;;;8.50;74.50;;;;;;5090457;28;20265;-71
2023/05/16 03:52:01;;;;;;;;;;;8.50;74.50;;;;;;5090034;28;20542;-71
2023/05/16 03:54:27;;;;;;;;;;;8.50;74.50;;;;;;5090093;28;19923;-71
2023/05/16 03:56:52;;;;;;;;;;;8.40;74.50;;;;;;5090206;28;19916;-71
2023/05/16 03:59:18;;;;;;;;;;;8.40;74.50;;;;;;5088924;28;19927;-71
2023/05/16 04:01:44;;;;;;;;;;;8.40;74.50;;;;;;5089854;28;19920;-70
2023/05/16 04:04:09;;;;;;;;;;;8.40;74.50;;;;;;5089813;28;19919;-71
2023/05/16 04:06:35;;;;;;;;;;;8.40;74.50;;;;;;5089944;28;19964;-71
2023/05/16 04:09:00;;;;;;;;;;;8.30;74.50;;;;;;5089934;28;19924;-71
2023/05/16 04:11:26;;;;;;;;;;;8.30;74.60;;;;;;5089694;28;20292;-71
2023/05/16 04:13:52;;;;;;;;;;;8.30;74.60;;;;;;5089751;28;19912;-71
2023/05/16 04:16:18;;;;;;;;;;;8.30;74.50;;;;;;5089762;28;19991;-71
2023/05/16 04:18:44;;;;;;;;;;;8.30;74.60;;;;;;5089720;28;20010;-71
2023/05/16 04:21:13;;;;;;;;;;;8.30;74.60;;;;;;5089654;28;20378;-71
2023/05/16 04:23:39;;;;;;;;;;;8.30;74.50;;;;;;5089488;28;19919;-71
2023/05/16 04:26:05;;;;;;;;;;;8.20;74.50;;;;;;5089548;28;19916;-71
2023/05/16 04:28:31;;;;;;;;;;;8.20;74.50;;;;;;5089605;28;20405;-71
2023/05/16 04:30:57;;;;;;;;;;;8.20;74.50;;;;;;5089416;28;19924;-71
2023/05/16 04:33:22;;;;;;;;;;;8.20;74.50;;;;;;5089466;28;19919;-70
2023/05/16 04:35:48;;;;;;;;;;;8.20;74.50;;;;;;5089403;28;19912;-71
2023/05/16 04:38:14;;;;;;;;;;;8.20;74.50;;;;;;5089379;28;19919;-71
2023/05/16 04:40:42;;;;;;;;;;;8.20;74.50;;;;;;5089385;28;19908;-71
2023/05/16 04:43:08;;;;;;;;;;;8.20;74.50;;;;;;5089527;28;20372;-71
2023/05/16 04:45:33;;;;;;;;;;;8.20;74.50;;;;;;5089158;28;19934;-71
2023/05/16 04:48:00;;;;;;;;;;;8.20;74.50;;;;;;5089140;28;19938;-71
2023/05/16 04:50:26;;;;;;;;;;;8.30;74.50;;;;;;5088896;28;20570;-71
2023/05/16 04:52:51;;;;;;;;;;;8.30;74.50;;;;;;5088265;28;19908;-72
2023/05/16 04:55:17;;;;;;;;;;;8.30;74.50;;;;;;5087809;28;19920;-72
2023/05/16 04:57:43;;;;;;;;;;;8.40;74.60;;;;;;5088897;28;19991;-72
2023/05/16 05:00:10;;;;;;;;;;;8.40;74.50;;;;;;5088984;28;19930;-72
2023/05/16 05:02:36;;;;;;;;;;;8.40;74.50;;;;;;5087476;28;20334;-72
2023/05/16 05:05:02;;;;;;;;;;;8.40;74.50;;;;;;5087825;28;20272;-72
2023/05/16 05:07:28;;;;;;;;;;;8.50;74.60;;;;;;5087484;28;19913;-72
2023/05/16 05:09:54;;;;;;;;;;;8.50;74.60;;;;;;5088721;28;19912;-72
2023/05/16 05:12:20;;;;;;;;;;;8.50;74.50;;;;;;5088578;28;19970;-72
2023/05/16 05:14:46;;;;;;;;;;;8.50;74.40;;;;;;5088532;28;19947;-71
2023/05/16 05:17:12;;;;;;;;;;;8.50;74.40;;;;;;5087467;28;19912;-72
2023/05/16 05:19:37;;;;;;;;;;;8.50;74.50;;;;;;5070206;28;20296;-71
2023/05/16 05:22:03;;;;;;;;;;;8.60;74.50;;;;;;5088655;28;19912;-71
2023/05/16 05:24:28;;;;;;;;;;;8.60;74.50;;;;;;5088304;28;19962;-71
2023/05/16 05:26:54;;;;;;;;;;;8.60;74.50;;;;;;5087093;28;19912;-71
2023/05/16 05:29:20;;;;;;;;;;;8.60;74.50;;;;;;5088770;28;19934;-70
2023/05/16 05:31:46;;;;;;;;;;;8.70;74.50;;;;;;5088276;28;19922;-71
2023/05/16 05:34:11;;;;;;;;;;;8.70;74.50;;;;;;5088414;28;19912;-71
2023/05/16 05:36:37;;;;;;;;;;;8.70;74.50;;;;;;5088196;28;20321;-71
2023/05/16 05:39:02;;;;;;;;;;;8.80;74.60;;;;;;5088371;28;19912;-71
2023/05/16 05:41:28;;;;;;;;;;;8.80;74.70;;;;;;5088191;28;19912;-71
2023/05/16 05:43:54;;;;;;;;;;;8.90;74.80;;;;;;5087959;28;20280;-71
2023/05/16 05:46:19;;;;;;;;;;;9.00;74.90;;;;;;5088104;28;19920;-71
2023/05/16 05:48:45;;;;;;;;;;;9.10;74.90;;;;;;5088010;28;19912;-71
2023/05/16 05:51:13;;;;;;;;;;;9.30;75.00;;;;;;5087770;28;19916;-71
2023/05/16 05:53:39;;;;;;;;;;;9.50;74.90;;;;;;5087790;28;19915;-71
2023/05/16 05:56:04;;;;;;;;;;;9.50;74.80;;;;;;5087813;28;19916;-71
2023/05/16 05:58:30;;;;;;;;;;;9.70;74.80;;;;;;5087639;28;20076;-71
2023/05/16 06:00:56;;;;;;;;;;;9.70;74.60;;;;;;5086378;28;20007;-70
2023/05/16 06:03:22;;;;;;;;;;;9.90;74.80;;;;;;5088567;28;20041;-70
2023/05/16 06:05:47;;;;;;;;;;;10.10;74.90;;;;;;5092199;28;19915;-71
2023/05/16 06:08:13;;;;;;;;;;;10.60;75.30;;;;;;5091740;28;19916;-71
2023/05/16 06:10:39;;;;;;;;;;;11.50;74.80;;;;;;5090478;28;19960;-71
2023/05/16 06:13:04;;;;;;;;;;;12.40;73.80;;;;;;5091844;28;19916;-71
2023/05/16 06:15:30;;;;;;;;;;;12.70;72.50;;;;;;5090438;28;19912;-71
2023/05/16 06:17:55;;;;;;;;;;;12.70;72.30;;;;;;5091740;28;19908;-71
2023/05/16 06:20:21;;;;;;;;;;;12.40;72.60;;;;;;5090521;28;19929;-71
2023/05/16 06:22:47;;;;;;;;;;;12.40;73.50;;;;;;5073652;28;19934;-71
2023/05/16 06:25:12;;;;;;;;;;;12.70;73.40;;;;;;5091712;28;19916;-71
2023/05/16 06:27:38;;;;;;;;;;;13.10;73.90;;;;;;5091517;28;19908;-71
2023/05/16 06:30:04;;;;;;;;;;;14.10;74.10;;;;;;5091365;28;20280;-71
2023/05/16 06:32:29;;;;;;;;;;;15.20;73.70;;;;;;5089947;28;19955;-71
2023/05/16 06:34:55;;;;;;;;;;;16.10;72.80;;;;;;5089885;28;20055;-71
2023/05/16 06:37:22;;;;;;;;;;;16.90;72.50;;;;;;5091524;28;20436;-71
2023/05/16 06:39:48;;;;;;;;;;;17.50;72.10;;;;;;5090085;28;19916;-71
2023/05/16 06:42:14;;;;;;;;;;;17.70;71.30;;;;;;5091944;28;19915;-71
2023/05/16 06:44:40;;;;;;;;;;;17.40;70.90;;;;;;5091285;28;19916;-71
2023/05/16 06:47:05;;;;;;;;;;;16.70;71.20;;;;;;5091223;28;20257;-71
2023/05/16 06:49:31;;;;;;;;;;;15.90;71.70;;;;;;5091215;28;19973;-71
2023/05/16 06:51:56;;;;;;;;;;;15.20;72.30;;;;;;5090968;28;20365;-71
2023/05/16 06:54:22;;;;;;;;;;;14.70;73.10;;;;;;5090871;28;19919;-71
2023/05/16 06:56:47;;;;;;;;;;;14.30;73.70;;;;;;5090931;28;19920;-71
2023/05/16 06:59:13;;;;;;;;;;;14.10;74.00;;;;;;5090589;28;19916;-71
2023/05/16 07:01:40;;;;;;;;;;;13.90;74.40;;;;;;5088730;28;19970;-71
2023/05/16 07:04:06;;;;;;;;;;;13.80;74.60;;;;;;5090471;28;19926;-71
2023/05/16 07:06:31;;;;;;;;;;;13.80;74.70;;;;;;5090429;28;19912;-69
2023/05/16 07:08:57;;;;;;;;;;;13.90;74.80;;;;;;5089014;28;19965;-71
2023/05/16 07:11:22;;;;;;;;;;;14.00;74.90;;;;;;5090308;28;19916;-71
2023/05/16 07:13:48;;;;;;;;;;;14.00;75.00;;;;;;5088577;28;19912;-71
2023/05/16 07:16:13;;;;;;;;;;;14.10;75.20;;;;;;5087917;28;19912;-71
2023/05/16 07:18:39;;;;;;;;;;;14.50;76.00;;;;;;5090290;28;19915;-71
2023/05/16 07:21:05;;;;;;;;;;;15.20;75.80;;;;;;5088704;28;19961;-70
2023/05/16 07:23:30;;;;;;;;;;;15.90;75.90;;;;;;5090182;28;19912;-71
2023/05/16 07:25:57;;;;;;;;;;;17.00;75.80;;;;;;5090397;28;19920;-71
2023/05/16 07:28:22;;;;;;;;;;;18.30;75.30;;;;;;5090051;28;19908;-71
2023/05/16 07:30:48;;;;;;;;;;;19.40;74.70;;;;;;5089809;28;20266;-71
2023/05/16 07:33:13;;;;;;;;;;;20.40;74.30;;;;;;5089378;28;20018;-71
2023/05/16 07:35:39;;;;;;;;;;;21.30;74.30;;;;;;5089852;28;19912;-72
2023/05/16 07:38:05;;;;;;;;;;;22.10;73.90;;;;;;5088505;28;20013;-72
2023/05/16 07:40:30;;;;;;;;;;;22.70;73.90;;;;;;5089540;28;20395;-71
2023/05/16 07:42:57;;;;;;;;;;;23.20;73.40;;;;;;5089647;28;19938;-71
2023/05/16 07:45:22;;;;;;;;;;;23.70;73.50;;;;;;5087903;28;19912;-71
2023/05/16 07:47:48;;;;;;;;;;;24.10;73.50;;;;;;5089534;28;19919;-71
2023/05/16 07:50:14;;;;;;;;;;;24.50;73.80;;;;;;5089425;28;20418;-72
2023/05/16 07:52:39;;;;;;;;;;;24.80;73.70;;;;;;5089510;28;19998;-72
2023/05/16 07:55:05;;;;;;;;;;;25.10;74.00;;;;;;5089450;28;19985;-71
2023/05/16 07:57:31;;;;;;;;;;;25.40;74.50;;;;;;5088954;28;20049;-72
2023/05/16 07:59:57;;;;;;;;;;;25.70;75.20;;;;;;5089217;28;19994;-71
2023/05/16 08:02:25;;;;;;;;;;;26.00;75.60;;;;;;5088934;28;20015;-71
2023/05/16 08:04:50;;;;;;;;;;;26.30;76.00;;;;;;5088459;28;19909;-71
2023/05/16 08:07:16;;;;;;;;;;;26.70;77.00;;;;;;5090057;28;20015;-72
2023/05/16 08:09:41;;;;;;;;;;;27.10;76.70;;;;;;5089677;28;19915;-72
2023/05/16 08:12:07;;;;;;;;;;;27.50;76.30;;;;;;5089319;28;20014;-72
2023/05/16 08:14:33;;;;;;;;;;;27.60;75.70;;;;;;5090461;28;19920;-74
2023/05/16 08:16:59;;;;;;;;;;;27.70;75.40;;;;;;5089253;28;19912;-72
2023/05/16 08:19:24;;;;;;;;;;;27.60;75.10;;;;;;5089082;28;19912;-72
2023/05/16 08:21:50;;;;;;;;;;;27.60;75.40;;;;;;5089350;28;19912;-72
2023/05/16 08:24:16;;;;;;;;;;;27.70;75.90;;;;;;5087610;28;20336;-72
2023/05/16 08:26:42;;;;;;;;;;;27.80;76.00;;;;;;5088550;28;19912;-72
2023/05/16 08:29:07;;;;;;;;;;;28.00;76.80;;;;;;5089278;28;20229;-72
2023/05/16 08:31:33;;;;;;;;;;;28.30;77.40;;;;;;5089196;28;19923;-72
2023/05/16 08:34:00;;;;;;;;;;;28.60;77.50;;;;;;5089226;28;20302;-73
2023/05/16 08:36:26;;;;;;;;;;;28.60;77.40;;;;;;5088797;28;19920;-73
2023/05/16 08:38:54;;;;;;;;;;;28.80;77.90;;;;;;5088666;28;19925;-73
2023/05/16 08:41:20;;;;;;;;;;;29.00;77.90;;;;;;5087501;28;19915;-73
2023/05/16 08:43:46;;;;;;;;;;;29.20;78.20;;;;;;5088405;28;20272;-73
2023/05/16 08:46:12;;;;;;;;;;;29.40;77.90;;;;;;5088479;28;19946;-73
2023/05/16 08:48:39;;;;;;;;;;;29.30;77.10;;;;;;5088244;28;19916;-73
2023/05/16 08:51:08;;;;;;;;;;;28.60;76.70;;;;;;5087139;28;19981;-72
2023/05/16 08:53:39;;;;;;;;;;;28.50;78.00;;;;;;5088013;28;19955;-72
2023/05/16 08:56:06;;;;;;;;;;;28.80;78.70;;;;;;5088277;28;20122;-73
2023/05/16 08:58:31;;;;;;;;;;;29.30;78.80;;;;;;5088014;28;19927;-73
2023/05/16 09:00:57;;;;;;;;;;;29.70;78.40;;;;;;5087981;28;20267;-72
2023/05/16 09:03:24;;;;;;;;;;;29.60;77.60;;;;;;5067898;28;19924;-72
2023/05/16 09:05:49;;;;;;;;;;;28.80;76.50;;;;;;5088364;28;19916;-72
2023/05/16 09:08:16;;;;;;;;;;;28.30;78.70;;;;;;5088647;28;19920;-72
2023/05/16 09:10:42;;;;;;;;;;;28.40;79.70;;;;;;5086026;28;19959;-73
2023/05/16 09:13:07;;;;;;;;;;;28.90;80.00;;;;;;5087831;28;20005;-67
2023/05/16 09:15:33;;;;;;;;;;;29.30;79.20;;;;;;5087624;28;19916;-74
2023/05/16 09:17:59;;;;;;;;;;;29.30;78.40;;;;;;5087429;28;19912;-74
2023/05/16 09:20:25;;;;;;;;;;;28.50;77.60;;;;;;5088075;28;20043;-72
2023/05/16 09:22:57;;;;;;;;;;;28.20;78.50;;;;;;5085350;28;20044;-72
2023/05/16 09:25:27;;;;;;;;;;;28.30;79.40;;;;;;5086082;28;20367;-72
2023/05/16 09:27:53;;;;;;;;;;;28.30;79.20;;;;;;5088514;28;20272;-72
2023/05/16 09:30:23;;;;;;;;;;;27.70;78.30;;;;;;5086779;28;19912;-72
2023/05/16 09:32:50;;;;;;;;;;;27.30;80.10;;;;;;5087783;28;19912;-72
2023/05/16 09:35:16;;;;;;;;;;;27.50;81.50;;;;;;5088102;28;19908;-72
2023/05/16 09:37:45;;;;;;;;;;;28.00;82.00;;;;;;5083877;28;20379;-72
2023/05/16 09:40:11;;;;;;;;;;;28.60;82.20;;;;;;5086027;28;19919;-72
2023/05/16 09:42:37;;;;;;;;;;;29.30;81.90;;;;;;5086950;28;19912;-72
2023/05/16 09:45:03;;;;;;;;;;;29.90;81.60;;;;;;5087554;28;20274;-72
2023/05/16 09:47:28;;;;;;;;;;;30.50;81.60;;;;;;5087731;28;20303;-72
2023/05/16 09:49:55;;;;;;;;;;;31.20;81.70;;;;;;5087503;28;19966;-72
2023/05/16 09:52:20;;;;;;;;;;;31.70;81.60;;;;;;5086619;28;20326;-72
2023/05/16 09:54:49;;;;;;;;;;;31.80;80.30;;;;;;5087115;28;19913;-72
2023/05/16 09:57:18;;;;;;;;;;;31.20;79.80;;;;;;5086746;28;20271;-72
2023/05/16 09:59:44;;;;;;;;;;;30.20;79.60;;;;;;5086830;28;19916;-75
2023/05/16 10:02:10;;;;;;;;;;;29.40;80.10;;;;;;5087029;28;19935;-74
2023/05/16 10:04:35;;;;;;;;;;;28.90;79.80;;;;;;5087781;28;20326;-74
2023/05/16 10:07:03;;;;;;;;;;;28.70;80.70;;;;;;5083800;28;20328;-73
2023/05/16 10:09:30;;;;;;;;;;;29.30;81.70;;;;;;5087876;28;20003;-74
2023/05/16 10:11:56;;;;;;;;;;;29.90;81.30;;;;;;5087932;28;19924;-75
2023/05/16 10:14:23;;;;;;;;;;;30.30;81.40;;;;;;5087872;28;19943;-73
2023/05/16 10:16:50;;;;;;;;;;;30.20;81.40;;;;;;5086166;28;19938;-73
2023/05/16 10:19:19;;;;;;;;;;;29.20;79.90;;;;;;5087905;28;19995;-73
2023/05/16 10:21:47;;;;;;;;;;;27.80;80.30;;;;;;5087773;28;19912;-73
2023/05/16 10:24:16;;;;;;;;;;;26.80;80.70;;;;;;5086352;28;20046;-75
2023/05/16 10:26:42;;;;;;;;;;;26.60;82.10;;;;;;5085552;28;20299;-73
2023/05/16 10:29:08;;;;;;;;;;;27.10;82.10;;;;;;5088174;28;19991;-71
2023/05/16 10:31:33;;;;;;;;;;;27.70;82.00;;;;;;5087544;28;19963;-73
2023/05/16 10:33:59;;;;;;;;;;;27.90;80.90;;;;;;5086375;28;20407;-74
2023/05/16 10:36:25;;;;;;;;;;;27.60;80.20;;;;;;5088863;28;19917;-76
2023/05/16 10:38:51;;;;;;;;;;;27.20;79.40;;;;;;5088071;28;20237;-75
2023/05/16 10:41:17;;;;;;;;;;;26.80;79.30;;;;;;5087871;28;19916;-76
2023/05/16 10:43:43;;;;;;;;;;;26.40;79.30;;;;;;5086172;28;19928;-76
2023/05/16 10:46:10;;;;;;;;;;;26.00;79.10;;;;;;5087554;28;19919;-76
2023/05/16 10:48:37;;;;;;;;;;;25.70;79.10;;;;;;5087028;28;19908;-74
2023/05/16 10:51:23;;;;;;;;;;;25.70;80.50;;;;;;5086593;28;19991;-75
2023/05/16 10:53:52;;;;;;;;;;;26.70;81.70;;;;;;5089425;28;20333;-76
2023/05/16 10:56:24;;;;;;;;;;;28.00;81.30;;;;;;5091256;28;19909;-76
2023/05/16 10:58:52;;;;;;;;;;;28.00;80.20;;;;;;5091607;28;19912;-77
2023/05/16 11:01:24;;;;;;;;;;;27.20;80.10;;;;;;5090568;28;20280;-76
2023/05/16 11:03:55;;;;;;;;;;;26.70;80.20;;;;;;5090733;28;19920;-75
2023/05/16 11:06:22;;;;;;;;;;;26.20;80.40;;;;;;5090408;28;19908;-76
2023/05/16 11:11:37;;;;;;;;;;;26.20;82.20;;;;;;5089361;28;20310;-76
2023/05/16 11:14:02;;;;;;;;;;;26.80;82.70;;;;;;5087620;28;20360;-77
2023/05/16 11:16:28;;;;;;;;;;;26.70;81.40;;;;;;5091171;28;20015;-76
2023/05/16 11:19:03;;;;;;;;;;;26.50;81.30;;;;;;5091152;28;19908;-80
2023/05/16 11:21:48;;;;;;;;;;;26.40;81.00;;;;;;5078533;28;19919;-77
2023/05/16 11:24:33;;;;;;;;;;;26.30;80.20;;;;;;5090049;28;19918;-76
2023/05/16 11:27:00;;;;;;;;;;;26.80;81.60;;;;;;5090785;28;19915;-76
2023/05/16 11:29:35;;;;;;;;;;;27.70;81.20;;;;;;5091137;28;19998;-79
2023/05/16 11:32:01;;;;;;;;;;;27.90;81.10;;;;;;5091832;28;20034;-75
2023/05/16 11:34:27;;;;;;;;;;;27.70;80.40;;;;;;5091868;28;20280;-79
2023/05/16 11:36:52;;;;;;;;;;;27.00;79.90;;;;;;5091707;28;19912;-78
2023/05/16 11:39:18;;;;;;;;;;;26.10;79.90;;;;;;5091182;28;19912;-77
2023/05/16 11:41:45;;;;;;;;;;;25.50;80.40;;;;;;5089493;28;19916;-77
2023/05/16 11:44:13;;;;;;;;;;;25.60;82.20;;;;;;5090378;28;19912;-71
2023/05/16 11:46:41;;;;;;;;;;;26.20;82.80;;;;;;5069299;28;20026;-77
2023/05/16 11:49:10;;;;;;;;;;;26.00;81.60;;;;;;5073900;28;19920;-77
2023/05/16 11:51:39;;;;;;;;;;;25.60;81.40;;;;;;5090821;28;19919;-77
2023/05/16 11:54:06;;;;;;;;;;;25.20;81.10;;;;;;5091316;28;19931;-79
2023/05/16 11:56:34;;;;;;;;;;;24.80;80.60;;;;;;5090789;28;19912;-75
2023/05/16 11:59:00;;;;;;;;;;;24.20;80.20;;;;;;5091359;28;19957;-76
2023/05/16 12:01:36;;;;;;;;;;;24.20;82.90;;;;;;5090391;28;19965;-79
2023/05/16 12:04:06;;;;;;;;;;;25.50;84.00;;;;;;5090284;28;19916;-76
2023/05/16 12:06:32;;;;;;;;;;;26.70;82.70;;;;;;5090551;28;19912;-76
2023/05/16 12:08:58;;;;;;;;;;;27.30;81.00;;;;;;5090691;28;19919;-78
2023/05/16 12:11:23;;;;;;;;;;;27.10;79.40;;;;;;5089346;28;20325;-78
2023/05/16 12:13:49;;;;;;;;;;;26.40;79.00;;;;;;5090418;28;20002;-76
2023/05/16 12:16:15;;;;;;;;;;;25.70;80.00;;;;;;5090075;28;19913;-77
2023/05/16 12:18:41;;;;;;;;;;;25.90;81.90;;;;;;5089597;28;19930;-77
2023/05/16 12:21:06;;;;;;;;;;;26.40;81.00;;;;;;5090330;28;19922;-79
2023/05/16 12:23:32;;;;;;;;;;;26.40;79.70;;;;;;5089604;28;19916;-77
2023/05/16 12:26:00;;;;;;;;;;;26.20;79.10;;;;;;5089627;28;19908;-77
2023/05/16 12:28:37;;;;;;;;;;;25.80;79.30;;;;;;5090649;28;19947;-77
2023/05/16 12:31:03;;;;;;;;;;;25.20;78.70;;;;;;5089257;28;19917;-77
2023/05/16 12:33:28;;;;;;;;;;;24.40;79.10;;;;;;5090958;28;19958;-80
2023/05/16 12:35:54;;;;;;;;;;;23.90;79.80;;;;;;5090928;28;19955;-78
2023/05/16 12:38:20;;;;;;;;;;;23.70;80.00;;;;;;5091167;28;19915;-79
2023/05/16 12:40:46;;;;;;;;;;;23.50;80.00;;;;;;5090556;28;20313;-79
2023/05/16 12:43:21;;;;;;;;;;;23.20;79.90;;;;;;5090121;28;19908;-79
2023/05/16 12:45:57;;;;;;;;;;;23.00;80.20;;;;;;5090894;28;19912;-79
2023/05/16 12:48:23;;;;;;;;;;;23.30;80.40;;;;;;5089609;28;20288;-79
2023/05/16 12:50:49;;;;;;;;;;;23.50;79.70;;;;;;5090820;28;19908;-80
2023/05/16 12:53:18;;;;;;;;;;;23.70;79.50;;;;;;5090847;28;19912;-79
2023/05/16 12:55:43;;;;;;;;;;;23.70;79.40;;;;;;5090989;28;19912;-79
2023/05/16 12:58:09;;;;;;;;;;;23.90;79.80;;;;;;5091139;28;19919;-80
2023/05/16 13:00:36;;;;;;;;;;;24.10;79.40;;;;;;5090847;28;20056;-80
2023/05/16 13:03:06;;;;;;;;;;;24.20;79.00;;;;;;5089880;28;20011;-75
2023/05/16 13:05:31;;;;;;;;;;;24.40;78.90;;;;;;5087457;28;19912;-74
2023/05/16 13:07:57;;;;;;;;;;;24.80;79.30;;;;;;5088803;28;19920;-74
2023/05/16 13:10:24;;;;;;;;;;;25.00;79.20;;;;;;5089096;28;19951;-74
2023/05/16 13:12:50;;;;;;;;;;;24.70;79.20;;;;;;5088326;28;20010;-74
2023/05/16 13:15:15;;;;;;;;;;;24.60;79.00;;;;;;5089190;28;20420;-74
2023/05/16 13:17:46;;;;;;;;;;;24.50;78.70;;;;;;5088488;28;19926;-73
2023/05/16 13:20:13;;;;;;;;;;;24.30;78.80;;;;;;5088405;28;19927;-74
2023/05/16 13:22:42;;;;;;;;;;;24.30;79.00;;;;;;5088317;28;20294;-74
2023/05/16 13:25:09;;;;;;;;;;;24.20;79.00;;;;;;5088378;28;19923;-74
2023/05/16 13:27:34;;;;;;;;;;;24.20;78.60;;;;;;5088160;28;19976;-74
2023/05/16 13:30:00;;;;;;;;;;;24.00;78.70;;;;;;5088113;28;19967;-75
2023/05/16 13:32:26;;;;;;;;;;;23.80;79.00;;;;;;5069432;28;20023;-75
2023/05/16 13:34:51;;;;;;;;;;;23.70;79.00;;;;;;5088036;28;19957;-74
2023/05/16 13:37:17;;;;;;;;;;;23.80;78.80;;;;;;5087850;28;19984;-76
2023/05/16 13:39:43;;;;;;;;;;;23.90;78.40;;;;;;5087120;28;19922;-75
2023/05/16 13:42:09;;;;;;;;;;;24.00;78.10;;;;;;5088602;28;19912;-74
2023/05/16 13:44:34;;;;;;;;;;;24.10;77.90;;;;;;5087608;28;19922;-75
2023/05/16 13:47:00;;;;;;;;;;;24.10;77.60;;;;;;5088194;28;19908;-76
2023/05/16 13:49:25;;;;;;;;;;;24.20;77.60;;;;;;5088262;28;20007;-76
2023/05/16 13:51:51;;;;;;;;;;;24.20;77.30;;;;;;5088132;28;19999;-76
2023/05/16 13:54:17;;;;;;;;;;;23.90;77.50;;;;;;5086654;28;19944;-73
2023/05/16 13:56:43;;;;;;;;;;;23.70;78.10;;;;;;5086967;28;20316;-74
2023/05/16 13:59:09;;;;;;;;;;;23.50;77.90;;;;;;5088122;28;19919;-75
2023/05/16 14:01:35;;;;;;;;;;;23.30;78.30;;;;;;5088241;28;19916;-76
2023/05/16 14:04:01;;;;;;;;;;;23.30;78.40;;;;;;5088269;28;19908;-74
2023/05/16 14:06:27;;;;;;;;;;;23.30;78.10;;;;;;5088066;28;19952;-73
2023/05/16 14:08:55;;;;;;;;;;;23.20;78.20;;;;;;5087947;28;19907;-75
2023/05/16 14:11:25;;;;;;;;;;;23.00;78.30;;;;;;5088673;28;19939;-78
2023/05/16 14:13:51;;;;;;;;;;;22.80;78.30;;;;;;5089360;28;19955;-75
2023/05/16 14:16:17;;;;;;;;;;;22.70;78.60;;;;;;5088224;28;19916;-70
2023/05/16 14:18:42;;;;;;;;;;;22.70;78.50;;;;;;5086496;28;19908;-72
2023/05/16 14:21:08;;;;;;;;;;;22.70;78.60;;;;;;5087818;28;19963;-73